sensor_id;sensor_type;location;lat;lon;timestamp;pressure;altitude;pressure_sealevel;temperature;humidity
55801;BME280;41730;51.960;20.158;2023-02-15T00:01:12;101962.77;;;5.05;73.98
55801;BME280;41730;51.960;20.158;2023-02-15T00:03:44;101962.58;;;5.10;74.07
55801;BME280;41730;51.960;20.158;2023-02-15T00:06:16;101960.30;;;5.05;73.96
55801;BME280;41730;51.960;20.158;2023-02-15T00:08:48;101961.05;;;5.04;74.18
55801;BME280;41730;51.960;20.158;2023-02-15T00:11:20;101961.54;;;4.93;74.42
55801;BME280;41730;51.960;20.158;2023-02-15T00:14:10;101959.50;;;4.97;74.24
55801;BME280;41730;51.960;20.158;2023-02-15T00:16:44;101956.89;;;4.97;73.91
55801;BME280;41730;51.960;20.158;2023-02-15T00:19:18;101950.96;;;4.93;74.21
55801;BME280;41730;51.960;20.158;2023-02-15T00:21:50;101950.92;;;4.94;74.00
55801;BME280;41730;51.960;20.158;2023-02-15T00:24:22;101951.89;;;4.91;74.02
55801;BME280;41730;51.960;20.158;2023-02-15T00:26:53;101948.23;;;4.96;73.80
55801;BME280;41730;51.960;20.158;2023-02-15T00:29:25;101949.70;;;5.00;73.62
55801;BME280;41730;51.960;20.158;2023-02-15T00:31:58;101945.67;;;5.00;73.68
55801;BME280;41730;51.960;20.158;2023-02-15T00:34:29;101939.91;;;4.90;73.89
55801;BME280;41730;51.960;20.158;2023-02-15T00:37:01;101937.63;;;4.80;74.27
55801;BME280;41730;51.960;20.158;2023-02-15T00:39:33;101937.00;;;4.83;73.96
55801;BME280;41730;51.960;20.158;2023-02-15T00:42:05;101933.72;;;4.77;74.06
55801;BME280;41730;51.960;20.158;2023-02-15T00:44:36;101929.55;;;4.77;73.92
55801;BME280;41730;51.960;20.158;2023-02-15T00:47:08;101928.77;;;4.68;74.18
55801;BME280;41730;51.960;20.158;2023-02-15T00:49:40;101926.61;;;4.59;74.47
55801;BME280;41730;51.960;20.158;2023-02-15T00:52:11;101927.80;;;4.55;74.56
55801;BME280;41730;51.960;20.158;2023-02-15T00:54:44;101927.16;;;4.53;74.65
55801;BME280;41730;51.960;20.158;2023-02-15T00:57:18;101929.94;;;4.47;74.86
55801;BME280;41730;51.960;20.158;2023-02-15T00:59:50;101923.21;;;4.40;75.05
55801;BME280;41730;51.960;20.158;2023-02-15T01:02:21;101920.66;;;4.32;75.27
55801;BME280;41730;51.960;20.158;2023-02-15T01:04:53;101917.60;;;4.41;75.15
55801;BME280;41730;51.960;20.158;2023-02-15T01:07:24;101922.21;;;4.50;74.86
55801;BME280;41730;51.960;20.158;2023-02-15T01:09:56;101923.98;;;4.60;74.43
55801;BME280;41730;51.960;20.158;2023-02-15T01:12:28;101917.95;;;4.59;74.35
55801;BME280;41730;51.960;20.158;2023-02-15T01:14:59;101918.06;;;4.37;74.81
55801;BME280;41730;51.960;20.158;2023-02-15T01:17:32;101915.98;;;4.31;75.33
55801;BME280;41730;51.960;20.158;2023-02-15T01:20:04;101917.55;;;4.31;75.14
55801;BME280;41730;51.960;20.158;2023-02-15T01:22:36;101913.06;;;4.30;75.18
55801;BME280;41730;51.960;20.158;2023-02-15T01:25:08;101913.34;;;4.32;75.27
55801;BME280;41730;51.960;20.158;2023-02-15T01:27:40;101915.45;;;4.38;75.04
55801;BME280;41730;51.960;20.158;2023-02-15T01:30:13;101912.88;;;4.36;75.15
55801;BME280;41730;51.960;20.158;2023-02-15T01:32:45;101910.74;;;4.38;75.23
55801;BME280;41730;51.960;20.158;2023-02-15T01:35:17;101902.65;;;4.47;75.07
55801;BME280;41730;51.960;20.158;2023-02-15T01:37:48;101899.98;;;4.50;75.05
55801;BME280;41730;51.960;20.158;2023-02-15T01:40:24;101895.00;;;4.59;74.80
55801;BME280;41730;51.960;20.158;2023-02-15T01:42:58;101893.20;;;4.67;74.39
55801;BME280;41730;51.960;20.158;2023-02-15T01:45:32;101891.33;;;4.60;74.53
55801;BME280;41730;51.960;20.158;2023-02-15T01:48:17;101894.55;;;4.57;74.64
55801;BME280;41730;51.960;20.158;2023-02-15T01:50:54;101894.90;;;4.52;74.72
55801;BME280;41730;51.960;20.158;2023-02-15T01:53:32;101889.89;;;4.51;74.86
55801;BME280;41730;51.960;20.158;2023-02-15T01:56:08;101885.71;;;4.56;74.53
55801;BME280;41730;51.960;20.158;2023-02-15T01:58:41;101881.33;;;4.58;74.56
55801;BME280;41730;51.960;20.158;2023-02-15T02:01:15;101880.30;;;4.51;74.58
55801;BME280;41730;51.960;20.158;2023-02-15T02:03:53;101886.46;;;4.43;74.98
55801;BME280;41730;51.960;20.158;2023-02-15T02:06:28;101885.33;;;4.46;74.86
55801;BME280;41730;51.960;20.158;2023-02-15T02:09:01;101882.18;;;4.47;74.94
55801;BME280;41730;51.960;20.158;2023-02-15T02:11:33;101882.38;;;4.52;74.89
55801;BME280;41730;51.960;20.158;2023-02-15T02:14:05;101878.20;;;4.52;74.82
55801;BME280;41730;51.960;20.158;2023-02-15T02:16:42;101876.40;;;4.42;74.98
55801;BME280;41730;51.960;20.158;2023-02-15T02:20:04;101877.96;;;4.31;75.21
55801;BME280;41730;51.960;20.158;2023-02-15T02:23:10;101877.26;;;4.32;75.47
55801;BME280;41730;51.960;20.158;2023-02-15T02:26:21;101876.36;;;4.38;75.14
55801;BME280;41730;51.960;20.158;2023-02-15T02:29:53;101874.91;;;4.34;75.13
55801;BME280;41730;51.960;20.158;2023-02-15T02:32:55;101870.30;;;4.38;74.99
55801;BME280;41730;51.960;20.158;2023-02-15T02:35:41;101867.99;;;4.39;74.89
55801;BME280;41730;51.960;20.158;2023-02-15T02:38:23;101867.25;;;4.30;75.18
55801;BME280;41730;51.960;20.158;2023-02-15T02:41:06;101858.91;;;4.24;75.38
55801;BME280;41730;51.960;20.158;2023-02-15T02:43:51;101854.11;;;4.39;75.02
55801;BME280;41730;51.960;20.158;2023-02-15T02:46:32;101853.52;;;4.35;74.95
55801;BME280;41730;51.960;20.158;2023-02-15T02:49:07;101857.20;;;4.28;75.24
55801;BME280;41730;51.960;20.158;2023-02-15T02:51:39;101861.02;;;4.23;75.49
55801;BME280;41730;51.960;20.158;2023-02-15T02:54:11;101859.14;;;4.33;75.31
55801;BME280;41730;51.960;20.158;2023-02-15T02:56:44;101858.59;;;4.40;75.10
55801;BME280;41730;51.960;20.158;2023-02-15T02:59:21;101858.63;;;4.33;75.32
55801;BME280;41730;51.960;20.158;2023-02-15T03:01:59;101857.20;;;4.34;75.11
55801;BME280;41730;51.960;20.158;2023-02-15T03:04:38;101857.30;;;4.43;75.09
55801;BME280;41730;51.960;20.158;2023-02-15T03:07:17;101857.52;;;4.53;74.69
55801;BME280;41730;51.960;20.158;2023-02-15T03:09:54;101855.30;;;4.57;74.47
55801;BME280;41730;51.960;20.158;2023-02-15T03:12:30;101854.21;;;4.58;74.57
55801;BME280;41730;51.960;20.158;2023-02-15T03:15:06;101852.96;;;4.59;74.55
55801;BME280;41730;51.960;20.158;2023-02-15T03:17:43;101848.84;;;4.52;74.67
55801;BME280;41730;51.960;20.158;2023-02-15T03:20:18;101849.86;;;4.47;74.83
55801;BME280;41730;51.960;20.158;2023-02-15T03:22:58;101849.08;;;4.44;74.98
55801;BME280;41730;51.960;20.158;2023-02-15T03:25:34;101846.55;;;4.42;75.03
55801;BME280;41730;51.960;20.158;2023-02-15T03:28:11;101846.54;;;4.42;75.08
55801;BME280;41730;51.960;20.158;2023-02-15T03:30:47;101846.66;;;4.44;75.22
55801;BME280;41730;51.960;20.158;2023-02-15T03:33:21;101844.08;;;4.49;75.00
55801;BME280;41730;51.960;20.158;2023-02-15T03:35:59;101849.20;;;4.46;75.07
55801;BME280;41730;51.960;20.158;2023-02-15T03:38:37;101843.87;;;4.50;75.00
55801;BME280;41730;51.960;20.158;2023-02-15T03:41:13;101844.98;;;4.54;74.82
55801;BME280;41730;51.960;20.158;2023-02-15T03:43:51;101847.65;;;4.57;74.65
55801;BME280;41730;51.960;20.158;2023-02-15T03:46:26;101848.28;;;4.47;74.97
55801;BME280;41730;51.960;20.158;2023-02-15T03:49:04;101848.40;;;4.61;74.58
55801;BME280;41730;51.960;20.158;2023-02-15T03:51:42;101854.14;;;4.55;74.64
55801;BME280;41730;51.960;20.158;2023-02-15T03:54:20;101851.98;;;4.58;74.59
55801;BME280;41730;51.960;20.158;2023-02-15T03:57:09;101845.13;;;4.71;74.23
55801;BME280;41730;51.960;20.158;2023-02-15T03:59:59;101848.21;;;4.72;74.11
55801;BME280;41730;51.960;20.158;2023-02-15T04:02:58;101855.11;;;4.57;74.50
55801;BME280;41730;51.960;20.158;2023-02-15T04:05:34;101852.53;;;4.45;74.98
55801;BME280;41730;51.960;20.158;2023-02-15T04:08:07;101846.83;;;4.39;75.02
55801;BME280;41730;51.960;20.158;2023-02-15T04:10:39;101840.88;;;4.34;75.10
55801;BME280;41730;51.960;20.158;2023-02-15T04:13:30;101840.42;;;4.33;75.36
55801;BME280;41730;51.960;20.158;2023-02-15T04:16:02;101840.73;;;4.33;75.56
55801;BME280;41730;51.960;20.158;2023-02-15T04:18:38;101840.67;;;4.36;75.43
55801;BME280;41730;51.960;20.158;2023-02-15T04:21:31;101842.07;;;4.29;75.57
55801;BME280;41730;51.960;20.158;2023-02-15T04:24:20;101842.92;;;4.35;75.52
55801;BME280;41730;51.960;20.158;2023-02-15T04:27:14;101840.27;;;4.32;75.43
55801;BME280;41730;51.960;20.158;2023-02-15T04:29:53;101841.09;;;4.44;74.96
55801;BME280;41730;51.960;20.158;2023-02-15T04:32:34;101836.27;;;4.43;75.09
55801;BME280;41730;51.960;20.158;2023-02-15T04:35:10;101832.60;;;4.38;75.26
55801;BME280;41730;51.960;20.158;2023-02-15T04:37:42;101835.41;;;4.48;75.11
55801;BME280;41730;51.960;20.158;2023-02-15T04:40:17;101837.77;;;4.51;74.80
55801;BME280;41730;51.960;20.158;2023-02-15T04:42:48;101835.14;;;4.40;75.20
55801;BME280;41730;51.960;20.158;2023-02-15T04:45:20;101836.40;;;4.39;75.40
55801;BME280;41730;51.960;20.158;2023-02-15T04:47:51;101835.10;;;4.24;75.70
55801;BME280;41730;51.960;20.158;2023-02-15T04:50:23;101835.46;;;4.24;75.68
55801;BME280;41730;51.960;20.158;2023-02-15T04:52:55;101830.81;;;4.17;76.05
55801;BME280;41730;51.960;20.158;2023-02-15T04:55:26;101827.83;;;4.19;76.09
55801;BME280;41730;51.960;20.158;2023-02-15T04:57:58;101828.46;;;4.15;76.15
55801;BME280;41730;51.960;20.158;2023-02-15T05:00:29;101837.02;;;4.07;76.51
55801;BME280;41730;51.960;20.158;2023-02-15T05:03:01;101838.91;;;4.14;76.53
55801;BME280;41730;51.960;20.158;2023-02-15T05:05:33;101836.20;;;4.17;76.38
55801;BME280;41730;51.960;20.158;2023-02-15T05:08:04;101832.67;;;4.24;76.11
55801;BME280;41730;51.960;20.158;2023-02-15T05:10:36;101832.95;;;4.33;75.82
55801;BME280;41730;51.960;20.158;2023-02-15T05:13:08;101835.39;;;4.32;75.87
55801;BME280;41730;51.960;20.158;2023-02-15T05:15:39;101836.00;;;4.29;76.00
55801;BME280;41730;51.960;20.158;2023-02-15T05:18:14;101838.39;;;4.25;76.03
55801;BME280;41730;51.960;20.158;2023-02-15T05:20:46;101834.08;;;4.24;76.17
55801;BME280;41730;51.960;20.158;2023-02-15T05:23:18;101835.23;;;4.37;75.46
55801;BME280;41730;51.960;20.158;2023-02-15T05:25:51;101836.69;;;4.29;75.83
55801;BME280;41730;51.960;20.158;2023-02-15T05:28:40;101841.11;;;4.38;75.95
55801;BME280;41730;51.960;20.158;2023-02-15T05:31:14;101842.14;;;4.44;75.82
55801;BME280;41730;51.960;20.158;2023-02-15T05:33:45;101843.09;;;4.47;75.76
55801;BME280;41730;51.960;20.158;2023-02-15T05:36:17;101843.51;;;4.51;75.55
55801;BME280;41730;51.960;20.158;2023-02-15T05:38:48;101842.88;;;4.48;75.63
55801;BME280;41730;51.960;20.158;2023-02-15T05:41:20;101844.92;;;4.44;75.61
55801;BME280;41730;51.960;20.158;2023-02-15T05:43:54;101842.30;;;4.45;75.67
55801;BME280;41730;51.960;20.158;2023-02-15T05:46:26;101844.58;;;4.38;75.84
55801;BME280;41730;51.960;20.158;2023-02-15T05:48:58;101839.27;;;4.36;76.26
55801;BME280;41730;51.960;20.158;2023-02-15T05:51:29;101840.84;;;4.47;75.80
55801;BME280;41730;51.960;20.158;2023-02-15T05:54:01;101842.66;;;4.56;75.71
55801;BME280;41730;51.960;20.158;2023-02-15T05:56:33;101847.02;;;4.49;75.59
55801;BME280;41730;51.960;20.158;2023-02-15T05:59:05;101845.69;;;4.48;75.70
55801;BME280;41730;51.960;20.158;2023-02-15T06:01:37;101842.68;;;4.44;75.73
55801;BME280;41730;51.960;20.158;2023-02-15T06:04:09;101849.66;;;4.42;76.05
55801;BME280;41730;51.960;20.158;2023-02-15T06:06:41;101847.33;;;4.39;76.13
55801;BME280;41730;51.960;20.158;2023-02-15T06:09:15;101846.17;;;4.43;76.12
55801;BME280;41730;51.960;20.158;2023-02-15T06:11:48;101844.23;;;4.49;75.97
55801;BME280;41730;51.960;20.158;2023-02-15T06:14:20;101848.59;;;4.54;75.75
55801;BME280;41730;51.960;20.158;2023-02-15T06:16:51;101847.70;;;4.61;75.52
55801;BME280;41730;51.960;20.158;2023-02-15T06:19:23;101840.52;;;4.57;75.81
55801;BME280;41730;51.960;20.158;2023-02-15T06:21:55;101839.10;;;4.63;75.35
55801;BME280;41730;51.960;20.158;2023-02-15T06:24:27;101833.52;;;4.69;75.32
55801;BME280;41730;51.960;20.158;2023-02-15T06:26:59;101836.56;;;4.72;75.29
55801;BME280;41730;51.960;20.158;2023-02-15T06:29:31;101834.39;;;4.81;74.82
55801;BME280;41730;51.960;20.158;2023-02-15T06:32:02;101842.77;;;4.74;75.28
55801;BME280;41730;51.960;20.158;2023-02-15T06:34:34;101843.16;;;4.73;75.48
55801;BME280;41730;51.960;20.158;2023-02-15T06:37:06;101843.10;;;4.74;75.32
55801;BME280;41730;51.960;20.158;2023-02-15T06:39:38;101843.73;;;4.71;75.53
55801;BME280;41730;51.960;20.158;2023-02-15T06:42:11;101843.21;;;4.65;75.66
55801;BME280;41730;51.960;20.158;2023-02-15T06:44:44;101840.17;;;4.68;75.73
55801;BME280;41730;51.960;20.158;2023-02-15T06:47:16;101841.26;;;4.72;75.62
55801;BME280;41730;51.960;20.158;2023-02-15T06:49:48;101836.09;;;4.86;75.19
55801;BME280;41730;51.960;20.158;2023-02-15T06:52:20;101837.86;;;4.81;75.18
55801;BME280;41730;51.960;20.158;2023-02-15T06:54:52;101838.63;;;4.79;75.27
55801;BME280;41730;51.960;20.158;2023-02-15T06:57:25;101828.40;;;4.72;75.55
55801;BME280;41730;51.960;20.158;2023-02-15T06:59:56;101834.38;;;4.70;75.85
55801;BME280;41730;51.960;20.158;2023-02-15T07:02:28;101838.46;;;4.62;76.07
55801;BME280;41730;51.960;20.158;2023-02-15T07:05:01;101836.35;;;4.63;76.14
55801;BME280;41730;51.960;20.158;2023-02-15T07:07:35;101837.90;;;4.63;76.15
55801;BME280;41730;51.960;20.158;2023-02-15T07:10:09;101835.14;;;4.68;75.96
55801;BME280;41730;51.960;20.158;2023-02-15T07:12:41;101833.60;;;4.78;75.51
55801;BME280;41730;51.960;20.158;2023-02-15T07:15:17;101837.27;;;4.88;75.28
55801;BME280;41730;51.960;20.158;2023-02-15T07:17:52;101835.61;;;4.86;75.47
55801;BME280;41730;51.960;20.158;2023-02-15T07:20:27;101835.53;;;4.93;75.13
55801;BME280;41730;51.960;20.158;2023-02-15T07:23:00;101839.36;;;4.99;75.16
55801;BME280;41730;51.960;20.158;2023-02-15T07:25:32;101838.53;;;4.97;74.90
55801;BME280;41730;51.960;20.158;2023-02-15T07:28:05;101836.77;;;4.93;75.13
55801;BME280;41730;51.960;20.158;2023-02-15T07:30:37;101836.35;;;4.89;75.20
55801;BME280;41730;51.960;20.158;2023-02-15T07:33:10;101833.56;;;4.90;75.43
55801;BME280;41730;51.960;20.158;2023-02-15T07:35:56;101832.90;;;4.99;75.14
55801;BME280;41730;51.960;20.158;2023-02-15T07:38:29;101831.75;;;4.92;75.22
55801;BME280;41730;51.960;20.158;2023-02-15T07:41:03;101830.31;;;4.93;75.36
55801;BME280;41730;51.960;20.158;2023-02-15T07:43:37;101829.08;;;4.94;75.26
55801;BME280;41730;51.960;20.158;2023-02-15T07:46:11;101826.57;;;4.91;75.09
55801;BME280;41730;51.960;20.158;2023-02-15T07:48:44;101824.48;;;4.81;75.68
55801;BME280;41730;51.960;20.158;2023-02-15T07:51:16;101819.27;;;4.81;75.49
55801;BME280;41730;51.960;20.158;2023-02-15T07:53:48;101814.10;;;4.95;75.35
55801;BME280;41730;51.960;20.158;2023-02-15T07:56:21;101817.49;;;5.02;75.02
55801;BME280;41730;51.960;20.158;2023-02-15T07:58:53;101813.71;;;5.01;74.98
55801;BME280;41730;51.960;20.158;2023-02-15T08:01:27;101811.61;;;4.97;75.16
55801;BME280;41730;51.960;20.158;2023-02-15T08:03:59;101808.95;;;4.93;75.47
55801;BME280;41730;51.960;20.158;2023-02-15T08:06:35;101805.68;;;4.97;75.17
55801;BME280;41730;51.960;20.158;2023-02-15T08:09:08;101805.20;;;4.96;75.11
55801;BME280;41730;51.960;20.158;2023-02-15T08:11:40;101802.08;;;5.01;75.14
55801;BME280;41730;51.960;20.158;2023-02-15T08:14:14;101799.98;;;4.96;74.94
55801;BME280;41730;51.960;20.158;2023-02-15T08:16:47;101798.09;;;4.85;75.19
55801;BME280;41730;51.960;20.158;2023-02-15T08:19:21;101789.44;;;4.84;75.33
55801;BME280;41730;51.960;20.158;2023-02-15T08:21:55;101787.66;;;4.90;75.14
55801;BME280;41730;51.960;20.158;2023-02-15T08:24:31;101785.98;;;4.89;75.13
55801;BME280;41730;51.960;20.158;2023-02-15T08:27:05;101788.16;;;4.86;75.42
55801;BME280;41730;51.960;20.158;2023-02-15T08:29:39;101790.40;;;4.86;75.26
55801;BME280;41730;51.960;20.158;2023-02-15T08:32:14;101788.45;;;4.93;75.15
55801;BME280;41730;51.960;20.158;2023-02-15T08:34:47;101783.91;;;4.93;75.12
55801;BME280;41730;51.960;20.158;2023-02-15T08:37:23;101779.33;;;4.85;75.26
55801;BME280;41730;51.960;20.158;2023-02-15T08:39:57;101780.83;;;4.92;75.33
55801;BME280;41730;51.960;20.158;2023-02-15T08:42:33;101776.90;;;5.05;74.93
55801;BME280;41730;51.960;20.158;2023-02-15T08:45:06;101772.60;;;5.14;74.77
55801;BME280;41730;51.960;20.158;2023-02-15T08:47:37;101774.25;;;5.26;74.20
55801;BME280;41730;51.960;20.158;2023-02-15T08:50:10;101769.14;;;5.23;73.78
55801;BME280;41730;51.960;20.158;2023-02-15T08:52:42;101767.24;;;5.18;74.16
55801;BME280;41730;51.960;20.158;2023-02-15T08:55:14;101768.30;;;5.27;73.89
55801;BME280;41730;51.960;20.158;2023-02-15T08:57:46;101765.75;;;5.16;74.14
55801;BME280;41730;51.960;20.158;2023-02-15T09:00:20;101762.09;;;5.11;74.45
55801;BME280;41730;51.960;20.158;2023-02-15T09:02:52;101762.38;;;5.13;74.50
55801;BME280;41730;51.960;20.158;2023-02-15T09:05:25;101761.51;;;5.13;74.46
55801;BME280;41730;51.960;20.158;2023-02-15T09:07:58;101762.21;;;5.03;74.58
55801;BME280;41730;51.960;20.158;2023-02-15T09:10:30;101756.08;;;4.99;74.87
55801;BME280;41730;51.960;20.158;2023-02-15T09:13:02;101755.85;;;5.01;74.95
55801;BME280;41730;51.960;20.158;2023-02-15T09:15:34;101756.45;;;5.04;74.88
55801;BME280;41730;51.960;20.158;2023-02-15T09:18:06;101754.60;;;5.06;74.81
55801;BME280;41730;51.960;20.158;2023-02-15T09:20:38;101750.27;;;5.06;74.55
55801;BME280;41730;51.960;20.158;2023-02-15T09:23:10;101749.65;;;5.09;74.50
55801;BME280;41730;51.960;20.158;2023-02-15T09:25:55;101748.67;;;5.06;74.59
55801;BME280;41730;51.960;20.158;2023-02-15T09:28:27;101752.38;;;5.05;74.60
55801;BME280;41730;51.960;20.158;2023-02-15T09:31:06;101745.14;;;5.13;74.32
55801;BME280;41730;51.960;20.158;2023-02-15T09:33:40;101745.90;;;5.12;74.08
55801;BME280;41730;51.960;20.158;2023-02-15T09:36:18;101743.71;;;5.10;74.09
55801;BME280;41730;51.960;20.158;2023-02-15T09:38:56;101740.04;;;5.15;73.89
55801;BME280;41730;51.960;20.158;2023-02-15T09:44:32;101743.59;;;5.18;73.95
55801;BME280;41730;51.960;20.158;2023-02-15T09:47:20;101738.76;;;5.22;73.36
55801;BME280;41730;51.960;20.158;2023-02-15T09:50:01;101738.56;;;5.12;73.76
55801;BME280;41730;51.960;20.158;2023-02-15T09:52:45;101730.37;;;5.09;74.13
55801;BME280;41730;51.960;20.158;2023-02-15T09:55:41;101725.71;;;5.08;74.04
55801;BME280;41730;51.960;20.158;2023-02-15T09:58:17;101720.35;;;5.21;73.88
55801;BME280;41730;51.960;20.158;2023-02-15T10:00:57;101715.02;;;5.19;73.93
55801;BME280;41730;51.960;20.158;2023-02-15T10:03:50;101718.80;;;5.16;74.06
55801;BME280;41730;51.960;20.158;2023-02-15T10:06:32;101716.69;;;5.21;74.08
55801;BME280;41730;51.960;20.158;2023-02-15T10:09:34;101715.09;;;5.31;73.68
55801;BME280;41730;51.960;20.158;2023-02-15T10:12:29;101715.54;;;5.25;73.73
55801;BME280;41730;51.960;20.158;2023-02-15T10:15:31;101713.27;;;5.20;73.85
55801;BME280;41730;51.960;20.158;2023-02-15T10:18:20;101707.23;;;5.14;74.03
55801;BME280;41730;51.960;20.158;2023-02-15T10:20:58;101712.03;;;5.11;73.96
55801;BME280;41730;51.960;20.158;2023-02-15T10:23:46;101713.23;;;5.06;74.25
55801;BME280;41730;51.960;20.158;2023-02-15T10:26:24;101707.95;;;5.03;74.29
55801;BME280;41730;51.960;20.158;2023-02-15T10:29:02;101709.55;;;4.98;74.66
55801;BME280;41730;51.960;20.158;2023-02-15T10:31:41;101708.13;;;4.98;74.44
55801;BME280;41730;51.960;20.158;2023-02-15T10:34:19;101703.84;;;5.11;74.21
55801;BME280;41730;51.960;20.158;2023-02-15T10:37:04;101707.95;;;5.08;74.18
55801;BME280;41730;51.960;20.158;2023-02-15T10:39:48;101704.58;;;5.05;74.51
55801;BME280;41730;51.960;20.158;2023-02-15T10:42:30;101707.77;;;5.08;74.07
55801;BME280;41730;51.960;20.158;2023-02-15T10:45:17;101701.84;;;5.04;74.43
55801;BME280;41730;51.960;20.158;2023-02-15T10:48:07;101697.01;;;5.04;74.39
55801;BME280;41730;51.960;20.158;2023-02-15T10:50:48;101689.76;;;5.02;74.87
55801;BME280;41730;51.960;20.158;2023-02-15T10:53:31;101681.61;;;5.15;74.46
55801;BME280;41730;51.960;20.158;2023-02-15T10:56:14;101685.07;;;5.21;74.20
55801;BME280;41730;51.960;20.158;2023-02-15T10:59:03;101683.33;;;5.11;74.51
55801;BME280;41730;51.960;20.158;2023-02-15T11:01:52;101678.40;;;5.13;74.63
55801;BME280;41730;51.960;20.158;2023-02-15T11:04:42;101683.81;;;5.12;74.67
55801;BME280;41730;51.960;20.158;2023-02-15T11:07:21;101682.63;;;5.12;74.37
55801;BME280;41730;51.960;20.158;2023-02-15T11:09:59;101683.65;;;5.17;74.42
55801;BME280;41730;51.960;20.158;2023-02-15T11:12:33;101676.86;;;5.22;74.28
55801;BME280;41730;51.960;20.158;2023-02-15T11:15:15;101675.61;;;5.32;73.82
55801;BME280;41730;51.960;20.158;2023-02-15T11:17:52;101674.69;;;5.29;74.06
55801;BME280;41730;51.960;20.158;2023-02-15T11:20:31;101672.17;;;5.31;74.12
55801;BME280;41730;51.960;20.158;2023-02-15T11:23:14;101667.92;;;5.24;74.31
55801;BME280;41730;51.960;20.158;2023-02-15T11:25:56;101662.42;;;5.26;74.42
55801;BME280;41730;51.960;20.158;2023-02-15T11:28:32;101663.48;;;5.31;74.30
55801;BME280;41730;51.960;20.158;2023-02-15T11:31:15;101665.27;;;5.33;74.23
55801;BME280;41730;51.960;20.158;2023-02-15T11:33:51;101665.95;;;5.30;73.80
55801;BME280;41730;51.960;20.158;2023-02-15T11:36:27;101666.13;;;5.21;73.99
55801;BME280;41730;51.960;20.158;2023-02-15T11:39:03;101664.91;;;5.20;74.19
55801;BME280;41730;51.960;20.158;2023-02-15T11:41:44;101659.23;;;5.28;73.91
55801;BME280;41730;51.960;20.158;2023-02-15T11:44:23;101656.14;;;5.27;73.65
55801;BME280;41730;51.960;20.158;2023-02-15T11:46:57;101655.70;;;5.25;73.82
55801;BME280;41730;51.960;20.158;2023-02-15T11:49:30;101655.83;;;5.30;73.77
55801;BME280;41730;51.960;20.158;2023-02-15T11:52:05;101649.73;;;5.36;73.64
55801;BME280;41730;51.960;20.158;2023-02-15T11:54:39;101646.39;;;5.42;73.76
55801;BME280;41730;51.960;20.158;2023-02-15T11:57:19;101641.67;;;5.46;73.64
55801;BME280;41730;51.960;20.158;2023-02-15T11:59:56;101636.17;;;5.49;73.49
55801;BME280;41730;51.960;20.158;2023-02-15T12:02:33;101632.67;;;5.41;73.77
55801;BME280;41730;51.960;20.158;2023-02-15T12:05:13;101626.05;;;5.32;73.71
55801;BME280;41730;51.960;20.158;2023-02-15T12:07:49;101623.61;;;5.27;73.97
55801;BME280;41730;51.960;20.158;2023-02-15T12:10:25;101621.36;;;5.31;73.74
55801;BME280;41730;51.960;20.158;2023-02-15T12:13:13;101615.30;;;5.22;73.78
55801;BME280;41730;51.960;20.158;2023-02-15T12:15:51;101609.39;;;5.12;73.99
55801;BME280;41730;51.960;20.158;2023-02-15T12:21:38;101596.67;;;5.27;73.75
55801;BME280;41730;51.960;20.158;2023-02-15T12:24:24;101595.23;;;5.42;73.31
55801;BME280;41730;51.960;20.158;2023-02-15T12:27:18;101596.73;;;5.34;73.49
55801;BME280;41730;51.960;20.158;2023-02-15T12:29:59;101595.46;;;5.27;73.98
55801;BME280;41730;51.960;20.158;2023-02-15T12:32:46;101594.27;;;5.35;73.91
55801;BME280;41730;51.960;20.158;2023-02-15T12:35:25;101593.44;;;5.52;73.50
55801;BME280;41730;51.960;20.158;2023-02-15T12:38:03;101592.14;;;5.50;73.42
55801;BME280;41730;51.960;20.158;2023-02-15T12:40:36;101593.23;;;5.40;73.63
55801;BME280;41730;51.960;20.158;2023-02-15T12:43:26;101594.95;;;5.27;74.14
55801;BME280;41730;51.960;20.158;2023-02-15T12:46:19;101583.88;;;5.16;74.42
55801;BME280;41730;51.960;20.158;2023-02-15T12:49:07;101588.52;;;5.36;74.04
55801;BME280;41730;51.960;20.158;2023-02-15T12:51:48;101582.48;;;5.43;73.35
55801;BME280;41730;51.960;20.158;2023-02-15T12:54:35;101581.01;;;5.37;73.11
55801;BME280;41730;51.960;20.158;2023-02-15T12:57:28;101577.14;;;5.29;73.27
55801;BME280;41730;51.960;20.158;2023-02-15T13:00:02;101575.20;;;5.25;73.35
55801;BME280;41730;51.960;20.158;2023-02-15T13:02:41;101573.64;;;5.15;73.77
55801;BME280;41730;51.960;20.158;2023-02-15T13:05:24;101566.44;;;4.99;74.12
55801;BME280;41730;51.960;20.158;2023-02-15T13:07:59;101568.09;;;4.92;74.51
55801;BME280;41730;51.960;20.158;2023-02-15T13:10:33;101564.16;;;4.86;74.69
55801;BME280;41730;51.960;20.158;2023-02-15T13:13:16;101562.90;;;4.77;74.87
55801;BME280;41730;51.960;20.158;2023-02-15T13:15:50;101564.28;;;4.92;74.58
55801;BME280;41730;51.960;20.158;2023-02-15T13:18:29;101560.13;;;4.91;74.46
55801;BME280;41730;51.960;20.158;2023-02-15T13:21:13;101558.02;;;4.87;74.64
55801;BME280;41730;51.960;20.158;2023-02-15T13:23:47;101556.48;;;4.92;74.50
55801;BME280;41730;51.960;20.158;2023-02-15T13:26:21;101553.34;;;4.87;74.26
55801;BME280;41730;51.960;20.158;2023-02-15T13:28:55;101548.74;;;4.80;74.79
55801;BME280;41730;51.960;20.158;2023-02-15T13:31:30;101548.45;;;4.78;74.85
55801;BME280;41730;51.960;20.158;2023-02-15T13:34:08;101548.88;;;4.85;74.88
55801;BME280;41730;51.960;20.158;2023-02-15T13:36:52;101544.11;;;5.01;74.42
55801;BME280;41730;51.960;20.158;2023-02-15T13:39:29;101543.00;;;5.12;74.39
55801;BME280;41730;51.960;20.158;2023-02-15T13:42:17;101541.03;;;5.18;73.99
55801;BME280;41730;51.960;20.158;2023-02-15T13:45:14;101538.14;;;5.16;73.98
55801;BME280;41730;51.960;20.158;2023-02-15T13:48:03;101539.66;;;5.13;74.08